createdAt,value
2018-07-23T00:00:00.243Z,5.8
2018-07-23T00:01:00.976Z,5.6
2018-07-23T00:02:01.697Z,5.8
2018-07-23T00:03:02.783Z,5.5
2018-07-23T00:04:03.554Z,5.6
2018-07-23T00:05:04.239Z,5.7
2018-07-23T00:06:04.956Z,5.8
2018-07-23T00:07:05.674Z,5.3
2018-07-23T00:08:06.463Z,5.5
2018-07-23T00:09:07.186Z,5.9
2018-07-23T00:10:08.020Z,5.5
2018-07-23T00:11:08.755Z,5.9
2018-07-23T00:12:09.471Z,5.6
2018-07-23T00:13:10.245Z,6.3
2018-07-23T00:14:10.974Z,6.5
2018-07-23T00:15:11.698Z,6.4
2018-07-23T00:16:12.433Z,5.7
2018-07-23T00:17:13.156Z,6.6
2018-07-23T00:18:13.930Z,6.1
2018-07-23T00:19:14.647Z,6.1
2018-07-23T00:20:15.377Z,6.3
2018-07-23T00:21:16.095Z,6.4
2018-07-23T00:22:16.828Z,6.4
2018-07-23T00:23:17.546Z,6.5
2018-07-23T00:24:18.301Z,5.7
2018-07-23T00:25:19.078Z,10.9
2018-07-23T00:26:19.802Z,5.8
2018-07-23T00:27:20.536Z,6.2
2018-07-23T00:28:21.260Z,6.5
2018-07-23T00:29:21.982Z,5.5
2018-07-23T00:30:22.717Z,5.7
2018-07-23T00:31:23.690Z,5.5
2018-07-23T00:32:24.415Z,6.3
2018-07-23T00:33:25.141Z,6.0
2018-07-23T00:34:26.106Z,6.9
2018-07-23T00:35:27.091Z,6.6
2018-07-23T00:36:27.858Z,46.3
2018-07-23T00:37:28.583Z,24.9
2018-07-23T00:38:29.312Z,10.9
2018-07-23T00:39:30.044Z,7.2
2018-07-23T00:40:30.766Z,7.1
2018-07-23T00:41:31.485Z,6.8
2018-07-23T00:42:32.208Z,6.9
2018-07-23T00:43:32.928Z,7.0
2018-07-23T00:44:33.812Z,7.1
2018-07-23T00:45:34.536Z,6.7
2018-07-23T00:46:35.266Z,7.0
2018-07-23T00:47:35.987Z,7.1
2018-07-23T00:48:36.718Z,7.0
2018-07-23T00:49:37.740Z,7.2
2018-07-23T00:50:38.454Z,7.3
2018-07-23T00:51:39.180Z,7.0
2018-07-23T00:52:40.157Z,6.7
2018-07-23T00:53:40.887Z,7.2
2018-07-23T00:54:41.624Z,6.7
2018-07-23T00:55:42.352Z,6.9
2018-07-23T00:56:43.077Z,6.6
2018-07-23T00:57:43.805Z,7.0
2018-07-23T00:58:44.528Z,7.5
2018-07-23T00:59:45.299Z,7.3
2018-07-23T01:00:46.269Z,6.3
2018-07-23T01:01:46.984Z,7.3
2018-07-23T01:02:47.707Z,7.0
2018-07-23T01:03:48.446Z,6.5
2018-07-23T01:04:49.213Z,6.8
2018-07-23T01:05:49.927Z,6.9
2018-07-23T01:06:51.151Z,7.3
2018-07-23T01:07:51.854Z,7.5
2018-07-23T01:08:52.582Z,7.6
2018-07-23T01:09:53.355Z,7.3
2018-07-23T01:10:54.071Z,6.5
2018-07-23T01:11:54.803Z,6.6
2018-07-23T01:12:55.518Z,7.0
2018-07-23T01:13:56.247Z,7.1
2018-07-23T01:14:56.975Z,6.9
2018-07-23T01:15:57.939Z,7.9
2018-07-23T01:16:58.916Z,7.5
2018-07-23T01:17:59.887Z,6.5
2018-07-23T01:19:00.609Z,6.8
2018-07-23T01:20:01.332Z,7.1
2018-07-23T01:21:02.061Z,7.0
2018-07-23T01:22:02.826Z,6.7
2018-07-23T01:23:03.547Z,7.7
2018-07-23T01:24:04.278Z,8.0
2018-07-23T01:25:04.995Z,7.9
2018-07-23T01:26:05.964Z,7.5
2018-07-23T01:27:06.815Z,7.6
2018-07-23T01:28:07.696Z,8.1
2018-07-23T01:29:08.631Z,7.8
2018-07-23T01:30:09.373Z,7.7
2018-07-23T01:31:10.143Z,8.0
2018-07-23T01:32:11.161Z,8.0
2018-07-23T01:33:11.886Z,7.6
2018-07-23T01:34:12.592Z,7.6
2018-07-23T01:35:13.337Z,7.9
2018-07-23T01:36:14.067Z,7.5
2018-07-23T01:37:14.784Z,7.7
2018-07-23T01:38:15.562Z,7.5
2018-07-23T01:39:16.287Z,7.4
2018-07-23T01:40:17.016Z,8.7
2018-07-23T01:41:17.733Z,7.8
2018-07-23T01:42:18.458Z,8.5
2018-07-23T01:43:19.232Z,8.1
2018-07-23T01:44:19.968Z,8.0
2018-07-23T01:45:20.728Z,7.7
2018-07-23T01:46:21.446Z,7.5
2018-07-23T01:47:22.177Z,8.6
2018-07-23T01:48:22.959Z,8.5
2018-07-23T01:49:23.682Z,8.4
2018-07-23T01:50:24.401Z,7.8
2018-07-23T01:51:25.142Z,8.0
2018-07-23T01:52:25.873Z,8.7
2018-07-23T01:53:26.838Z,9.0
2018-07-23T01:54:27.563Z,8.7
2018-07-23T01:55:28.286Z,9.1
2018-07-23T01:56:29.027Z,9.0
2018-07-23T01:57:29.750Z,8.8
2018-07-23T01:58:30.474Z,9.2
2018-07-23T01:59:31.547Z,8.5
2018-07-23T02:00:32.517Z,8.9
2018-07-23T02:01:33.504Z,9.7
2018-07-23T02:02:34.221Z,8.8
2018-07-23T02:03:34.944Z,9.0
2018-07-23T02:04:35.666Z,9.6
2018-07-23T02:05:36.396Z,9.8
2018-07-23T02:06:37.118Z,9.8
2018-07-23T02:07:37.843Z,10.1
2018-07-23T02:08:38.678Z,9.7
2018-07-23T02:09:39.416Z,9.8
2018-07-23T02:10:40.135Z,9.8
2018-07-23T02:11:40.870Z,9.6
2018-07-23T02:12:41.595Z,10.0
2018-07-23T02:13:42.326Z,10.2
2018-07-23T02:14:43.118Z,9.7
2018-07-23T02:15:43.828Z,10.2
2018-07-23T02:16:44.567Z,10.6
2018-07-23T02:17:45.283Z,10.7
2018-07-23T02:18:46.015Z,10.5
2018-07-23T02:19:46.745Z,10.0
2018-07-23T02:20:47.477Z,11.2
2018-07-23T02:21:48.214Z,10.5
2018-07-23T02:22:49.204Z,9.9
2018-07-23T02:23:50.000Z,11.1
2018-07-23T02:24:50.724Z,10.6
2018-07-23T02:25:51.448Z,10.4
2018-07-23T02:26:52.177Z,10.4
2018-07-23T02:27:53.154Z,11.2
2018-07-23T02:28:53.935Z,10.7
2018-07-23T02:29:54.668Z,10.5
2018-07-23T02:30:55.391Z,10.4
2018-07-23T02:31:56.113Z,11.1
2018-07-23T02:32:56.832Z,11.3
2018-07-23T02:33:57.605Z,10.9
2018-07-23T02:34:58.329Z,11.4
2018-07-23T02:35:59.060Z,10.2
2018-07-23T02:36:59.785Z,10.8
2018-07-23T02:38:00.507Z,10.4
2018-07-23T02:39:01.578Z,9.6
2018-07-23T02:40:02.309Z,9.6
2018-07-23T02:41:03.053Z,9.8
2018-07-23T02:42:03.760Z,10.4
2018-07-23T02:43:04.473Z,8.2
2018-07-23T02:44:05.554Z,8.1
2018-07-23T02:45:06.279Z,9.0
2018-07-23T02:46:07.007Z,7.4
2018-07-23T02:47:07.732Z,7.9
2018-07-23T02:48:08.452Z,8.1
2018-07-23T02:49:09.172Z,7.6
2018-07-23T02:50:09.890Z,7.5
2018-07-23T02:51:10.606Z,7.9
2018-07-23T02:52:11.327Z,7.9
2018-07-23T02:53:12.058Z,8.6
2018-07-23T02:54:13.128Z,7.8
2018-07-23T02:55:13.861Z,7.5
2018-07-23T02:56:14.584Z,7.8
2018-07-23T02:57:15.316Z,8.9
2018-07-23T02:58:16.295Z,8.0
2018-07-23T02:59:17.310Z,7.8
2018-07-23T03:00:18.287Z,8.4
2018-07-23T03:01:19.035Z,8.5
2018-07-23T03:02:19.745Z,8.5
2018-07-23T03:03:20.471Z,9.3
2018-07-23T03:04:21.250Z,9.1
2018-07-23T03:05:21.979Z,8.8
2018-07-23T03:06:22.692Z,9.4
2018-07-23T03:07:23.429Z,10.0
2018-07-23T03:08:24.161Z,9.2
2018-07-23T03:09:24.986Z,9.6
2018-07-23T03:10:25.718Z,10.1
2018-07-23T03:11:26.450Z,9.7
2018-07-23T03:12:27.182Z,10.4
2018-07-23T03:13:27.915Z,10.4
2018-07-23T03:14:28.650Z,9.8
2018-07-23T03:15:29.393Z,9.8
2018-07-23T03:16:30.467Z,9.2
2018-07-23T03:17:31.184Z,10.2
2018-07-23T03:18:31.920Z,9.6
2018-07-23T03:19:32.652Z,9.8
2018-07-23T03:20:33.391Z,10.0
2018-07-23T03:21:34.478Z,9.6
2018-07-23T03:22:35.187Z,10.5
2018-07-23T03:23:36.167Z,9.3
2018-07-23T03:24:36.923Z,9.4
2018-07-23T03:25:37.648Z,9.5
2018-07-23T03:26:38.719Z,9.8
2018-07-23T03:27:39.460Z,10.3
2018-07-23T03:28:40.184Z,10.2
2018-07-23T03:29:40.919Z,10.3
2018-07-23T03:30:41.651Z,10.5
2018-07-23T03:31:42.411Z,10.1
2018-07-23T03:32:43.184Z,9.7
2018-07-23T03:33:43.908Z,9.6
2018-07-23T03:34:44.653Z,9.2
2018-07-23T03:35:45.387Z,9.8
2018-07-23T03:36:46.117Z,10.0
2018-07-23T03:37:46.849Z,9.7
2018-07-23T03:38:47.576Z,9.9
2018-07-23T03:39:48.307Z,10.2
2018-07-23T03:40:49.045Z,9.6
2018-07-23T03:41:49.767Z,9.7
2018-07-23T03:42:50.544Z,9.5
2018-07-23T03:43:51.273Z,9.6
2018-07-23T03:44:52.003Z,9.5
2018-07-23T03:45:52.725Z,9.4
2018-07-23T03:46:53.466Z,9.7
2018-07-23T03:47:54.543Z,9.7
2018-07-23T03:48:55.271Z,9.7
2018-07-23T03:49:56.007Z,10.0
2018-07-23T03:50:56.743Z,9.4
2018-07-23T03:51:57.471Z,9.3
2018-07-23T03:52:58.249Z,9.8
2018-07-23T03:53:58.976Z,9.6
2018-07-23T03:54:59.713Z,10.5
2018-07-23T03:56:00.458Z,9.6
2018-07-23T03:57:01.172Z,9.4
2018-07-23T03:58:01.966Z,9.0
2018-07-23T03:59:02.701Z,10.1
2018-07-23T04:00:03.472Z,9.8
2018-07-23T04:01:04.179Z,10.6
2018-07-23T04:02:04.919Z,9.5
2018-07-23T04:03:05.710Z,10.0
2018-07-23T04:04:06.510Z,9.7
2018-07-23T04:05:07.258Z,9.8
2018-07-23T04:06:08.419Z,10.6
2018-07-23T04:07:09.176Z,9.8
2018-07-23T04:08:10.188Z,10.5
2018-07-23T04:09:11.011Z,9.8
2018-07-23T04:10:11.767Z,10.3
2018-07-23T04:11:12.951Z,10.3
2018-07-23T04:12:13.740Z,10.7
2018-07-23T04:13:14.930Z,9.7
2018-07-23T04:14:15.792Z,10.3
2018-07-23T04:15:16.712Z,10.5
2018-07-23T04:16:17.498Z,10.9
2018-07-23T04:17:18.276Z,10.5
2018-07-23T04:18:19.486Z,11.1
2018-07-23T04:19:20.709Z,10.9
2018-07-23T04:20:21.514Z,11.3
2018-07-23T04:21:22.239Z,10.9
2018-07-23T04:22:23.317Z,11.5
2018-07-23T04:23:24.064Z,11.0
2018-07-23T04:24:24.867Z,10.4
2018-07-23T04:25:25.666Z,10.4
2018-07-23T04:26:26.601Z,10.6
2018-07-23T04:27:27.345Z,10.5
2018-07-23T04:28:28.180Z,11.4
2018-07-23T04:29:29.092Z,11.1
2018-07-23T04:30:29.820Z,11.4
2018-07-23T04:31:30.743Z,12.1
2018-07-23T04:32:31.662Z,11.1
2018-07-23T04:33:32.417Z,10.9
2018-07-23T04:34:33.203Z,10.8
2018-07-23T04:35:34.010Z,10.4
2018-07-23T04:36:34.836Z,10.8
2018-07-23T04:37:35.677Z,10.0
2018-07-23T04:38:36.491Z,11.0
2018-07-23T04:39:37.244Z,11.6
2018-07-23T04:40:38.146Z,12.1
2018-07-23T04:41:38.980Z,10.8
2018-07-23T04:42:39.762Z,11.2
2018-07-23T04:43:40.710Z,10.1
2018-07-23T04:44:41.461Z,11.0
2018-07-23T04:45:42.252Z,10.2
2018-07-23T04:46:43.050Z,10.3
2018-07-23T04:47:43.874Z,10.0
2018-07-23T04:48:44.660Z,10.4
2018-07-23T04:49:45.380Z,9.5
2018-07-23T04:50:46.126Z,10.4
2018-07-23T04:51:46.858Z,9.1
2018-07-23T04:52:47.635Z,9.9
2018-07-23T04:53:48.353Z,9.3
2018-07-23T04:54:49.076Z,9.4
2018-07-23T04:55:49.809Z,9.3
2018-07-23T04:56:50.634Z,9.6
2018-07-23T04:57:51.280Z,9.5
2018-07-23T04:58:52.030Z,9.8
2018-07-23T04:59:52.820Z,8.9
2018-07-23T05:00:53.567Z,9.2
2018-07-23T05:01:54.302Z,8.9
2018-07-23T05:02:55.033Z,8.3
2018-07-23T05:03:55.763Z,8.9
2018-07-23T05:04:56.542Z,8.7
2018-07-23T05:05:57.273Z,8.0
2018-07-23T05:06:57.996Z,8.2
2018-07-23T05:07:58.728Z,8.4
2018-07-23T05:08:59.460Z,8.1
2018-07-23T05:10:00.191Z,7.3
2018-07-23T05:11:00.972Z,6.9
2018-07-23T05:12:01.699Z,7.2
2018-07-23T05:13:02.434Z,7.3
2018-07-23T05:14:03.158Z,7.5
2018-07-23T05:15:03.889Z,7.6
2018-07-23T05:16:04.732Z,7.0
2018-07-23T05:17:05.402Z,7.9
2018-07-23T05:18:06.128Z,8.3
2018-07-23T05:19:06.857Z,7.6
2018-07-23T05:20:07.595Z,6.8
2018-07-23T05:21:08.381Z,7.6
2018-07-23T05:22:09.113Z,7.5
2018-07-23T05:23:09.844Z,6.7
2018-07-23T05:24:10.563Z,7.1
2018-07-23T05:25:11.290Z,7.1
2018-07-23T05:26:12.055Z,7.8
2018-07-23T05:27:12.750Z,7.4
2018-07-23T05:28:13.728Z,7.8
2018-07-23T05:29:14.459Z,7.7
2018-07-23T05:30:15.199Z,7.6
2018-07-23T05:31:15.938Z,6.8
2018-07-23T05:32:16.712Z,7.3
2018-07-23T05:33:17.446Z,6.7
2018-07-23T05:34:18.178Z,6.8
2018-07-23T05:35:18.925Z,6.4
2018-07-23T05:36:19.648Z,6.5
2018-07-23T05:37:20.729Z,6.4
2018-07-23T05:38:21.471Z,6.9
2018-07-23T05:39:22.195Z,6.3
2018-07-23T05:40:22.924Z,6.7
2018-07-23T05:41:23.658Z,6.3
2018-07-23T05:42:24.440Z,6.2
2018-07-23T05:43:25.191Z,6.3
2018-07-23T05:44:25.896Z,6.2
2018-07-23T05:45:26.629Z,6.8
2018-07-23T05:46:27.366Z,16.5
2018-07-23T05:47:28.093Z,12.6
2018-07-23T05:48:28.892Z,8.6
2018-07-23T05:49:29.625Z,7.2
2018-07-23T05:50:30.349Z,8.9
2018-07-23T05:51:31.082Z,9.3
2018-07-23T05:52:32.086Z,6.4
2018-07-23T05:53:32.818Z,7.7
2018-07-23T05:54:33.549Z,7.2
2018-07-23T05:55:34.290Z,6.6
2018-07-23T05:56:35.033Z,8.0
2018-07-23T05:57:35.764Z,8.6
2018-07-23T05:58:36.494Z,10.9
2018-07-23T05:59:37.246Z,11.8
2018-07-23T06:00:37.981Z,11.2
2018-07-23T06:01:38.739Z,7.1
2018-07-23T06:02:39.466Z,6.5
2018-07-23T06:03:40.223Z,5.5
2018-07-23T06:04:40.974Z,5.6
2018-07-23T06:05:41.721Z,6.2
2018-07-23T06:06:42.471Z,5.7
2018-07-23T06:07:43.180Z,5.6
2018-07-23T06:08:43.916Z,6.1
2018-07-23T06:09:44.646Z,5.9
2018-07-23T06:10:45.377Z,6.7
2018-07-23T06:11:46.109Z,6.0
2018-07-23T06:12:46.829Z,5.9
2018-07-23T06:13:47.563Z,5.9
2018-07-23T06:14:48.346Z,6.3
2018-07-23T06:15:49.073Z,6.6
2018-07-23T06:16:49.800Z,6.2
2018-07-23T06:17:50.550Z,6.6
2018-07-23T06:18:51.305Z,6.2
2018-07-23T06:19:52.041Z,6.1
2018-07-23T06:20:52.759Z,5.8
2018-07-23T06:21:53.524Z,6.2
2018-07-23T06:22:54.499Z,6.9
2018-07-23T06:23:55.235Z,6.0
2018-07-23T06:24:55.968Z,6.9
2018-07-23T06:25:56.696Z,7.4
2018-07-23T06:26:57.440Z,7.3
2018-07-23T06:27:58.176Z,7.2
2018-07-23T06:28:58.923Z,6.5
2018-07-23T06:29:59.709Z,7.1
2018-07-23T06:31:00.399Z,7.2
2018-07-23T06:32:01.138Z,7.1
2018-07-23T06:33:01.875Z,6.7
2018-07-23T06:34:02.962Z,7.5
2018-07-23T06:35:03.692Z,7.8
2018-07-23T06:36:04.424Z,7.7
2018-07-23T06:37:05.159Z,8.1
2018-07-23T06:38:05.888Z,7.6
2018-07-23T06:39:06.678Z,8.2
2018-07-23T06:40:07.407Z,7.2
2018-07-23T06:41:08.148Z,8.4
2018-07-23T06:42:08.871Z,7.5
2018-07-23T06:43:09.618Z,7.1
2018-07-23T06:44:10.344Z,8.2
2018-07-23T06:45:11.081Z,8.2
2018-07-23T06:46:11.805Z,9.4
2018-07-23T06:47:12.548Z,9.2
2018-07-23T06:48:13.289Z,9.9
2018-07-23T06:49:14.024Z,8.5
2018-07-23T06:50:14.753Z,10.1
2018-07-23T06:51:15.499Z,12.7
2018-07-23T06:52:16.226Z,13.0
2018-07-23T06:53:16.977Z,13.1
2018-07-23T06:54:17.710Z,12.4
2018-07-23T06:55:18.699Z,13.1
2018-07-23T06:56:19.438Z,12.9
2018-07-23T06:57:20.176Z,13.2
2018-07-23T06:58:20.913Z,12.4
2018-07-23T06:59:21.645Z,13.1
2018-07-23T07:00:22.437Z,11.3
2018-07-23T07:01:23.181Z,13.3
2018-07-23T07:02:23.934Z,13.1
2018-07-23T07:03:24.672Z,12.4
2018-07-23T07:04:25.394Z,13.4
2018-07-23T07:05:26.138Z,13.9
2018-07-23T07:06:26.886Z,13.2
2018-07-23T07:07:27.606Z,13.6
2018-07-23T07:08:28.338Z,13.0
2018-07-23T07:09:29.069Z,13.3
2018-07-23T07:10:29.818Z,13.0
2018-07-23T07:11:30.557Z,13.8
2018-07-23T07:12:31.292Z,14.3
2018-07-23T07:13:32.160Z,12.9
2018-07-23T07:14:32.816Z,14.3
2018-07-23T07:15:33.810Z,14.2
2018-07-23T07:16:34.545Z,14.3
2018-07-23T07:17:35.284Z,13.8
2018-07-23T07:18:36.018Z,13.8
2018-07-23T07:19:36.751Z,14.8
2018-07-23T07:20:37.739Z,14.7
2018-07-23T07:21:38.720Z,15.1
2018-07-23T07:22:39.466Z,15.6
2018-07-23T07:23:40.206Z,17.1
2018-07-23T07:24:40.951Z,17.0
2018-07-23T07:25:41.963Z,16.6
2018-07-23T07:26:42.752Z,16.9
2018-07-23T07:27:43.477Z,17.4
2018-07-23T07:28:44.455Z,16.8
2018-07-23T07:29:45.190Z,15.4
2018-07-23T07:30:45.929Z,16.3
2018-07-23T07:31:47.028Z,14.9
2018-07-23T07:32:47.762Z,15.6
2018-07-23T07:33:48.508Z,17.4
2018-07-23T07:34:49.247Z,16.3
2018-07-23T07:35:49.980Z,17.5
2018-07-23T07:36:50.710Z,17.7
2018-07-23T07:37:51.757Z,17.0
2018-07-23T07:38:52.494Z,15.6
2018-07-23T07:39:53.233Z,15.5
2018-07-23T07:40:53.979Z,15.8
2018-07-23T07:41:54.709Z,14.9
2018-07-23T07:42:55.442Z,15.2
2018-07-23T07:43:56.169Z,15.2
2018-07-23T07:44:56.914Z,14.8
2018-07-23T07:45:57.646Z,14.1
2018-07-23T07:46:58.382Z,14.6
2018-07-23T07:47:59.116Z,14.1
2018-07-23T07:48:59.860Z,13.8
2018-07-23T07:50:00.593Z,14.2
2018-07-23T07:51:01.323Z,15.3
2018-07-23T07:52:02.319Z,13.8
2018-07-23T07:53:03.051Z,13.3
2018-07-23T07:54:03.836Z,14.5
2018-07-23T07:55:04.593Z,14.5
2018-07-23T07:56:05.323Z,13.6
2018-07-23T07:57:06.065Z,13.8
2018-07-23T07:58:06.806Z,14.5
2018-07-23T07:59:07.868Z,13.0
2018-07-23T08:00:08.599Z,13.1
2018-07-23T08:01:09.337Z,13.3
2018-07-23T08:02:10.067Z,14.7
2018-07-23T08:03:10.808Z,13.3
2018-07-23T08:04:11.592Z,12.6
2018-07-23T08:05:12.335Z,13.2
2018-07-23T08:06:13.083Z,12.6
2018-07-23T08:07:13.836Z,12.1
2018-07-23T08:08:14.561Z,12.9
2018-07-23T08:09:15.289Z,12.6
2018-07-23T08:10:16.026Z,11.9
2018-07-23T08:11:16.810Z,13.3
2018-07-23T08:12:17.554Z,12.9
2018-07-23T08:13:18.330Z,12.3
2018-07-23T08:14:19.085Z,11.6
2018-07-23T08:15:19.823Z,12.5
2018-07-23T08:16:20.622Z,12.7
2018-07-23T08:17:21.365Z,12.2
2018-07-23T08:18:22.103Z,12.0
2018-07-23T08:19:22.864Z,13.9
2018-07-23T08:20:23.605Z,12.6
2018-07-23T08:21:24.632Z,12.7
2018-07-23T08:22:25.372Z,12.9
2018-07-23T08:23:26.141Z,11.8
2018-07-23T08:24:26.881Z,12.8
2018-07-23T08:25:27.633Z,13.1
2018-07-23T08:26:28.371Z,12.8
2018-07-23T08:27:29.110Z,13.3
2018-07-23T08:28:29.839Z,12.1
2018-07-23T08:29:30.849Z,12.8
2018-07-23T08:30:31.849Z,14.1
2018-07-23T08:31:32.697Z,14.3
2018-07-23T08:32:33.397Z,14.1
2018-07-23T08:33:34.153Z,12.8
2018-07-23T08:34:34.895Z,12.1
2018-07-23T08:35:35.626Z,11.4
2018-07-23T08:36:36.363Z,11.6
2018-07-23T08:37:37.106Z,11.3
2018-07-23T08:38:37.873Z,11.9
2018-07-23T08:39:38.654Z,12.4
2018-07-23T08:40:39.586Z,12.3
2018-07-23T08:41:40.318Z,10.1
2018-07-23T08:42:41.105Z,11.1
2018-07-23T08:43:41.852Z,11.5
2018-07-23T08:44:42.591Z,10.1
2018-07-23T08:45:43.330Z,9.8
2018-07-23T08:46:44.078Z,10.4
2018-07-23T08:47:45.175Z,12.8
2018-07-23T08:48:45.928Z,10.6
2018-07-23T08:49:46.659Z,12.3
2018-07-23T08:50:47.410Z,11.5
2018-07-23T08:51:48.141Z,10.5
2018-07-23T08:52:48.950Z,11.2
2018-07-23T08:53:49.689Z,11.5
2018-07-23T08:54:50.435Z,10.8
2018-07-23T08:55:51.173Z,11.5
2018-07-23T08:56:51.925Z,10.1
2018-07-23T08:57:52.717Z,9.6
2018-07-23T08:58:53.468Z,10.0
2018-07-23T08:59:54.222Z,11.6
2018-07-23T09:00:55.215Z,11.8
2018-07-23T09:01:55.955Z,11.7
2018-07-23T09:02:56.764Z,12.1
2018-07-23T09:03:57.517Z,12.1
2018-07-23T09:04:58.264Z,10.9
2018-07-23T09:05:59.003Z,10.8
2018-07-23T09:06:59.747Z,9.8
2018-07-23T09:08:00.506Z,9.4
2018-07-23T09:09:01.260Z,10.5
2018-07-23T09:10:02.245Z,9.9
2018-07-23T09:11:02.985Z,11.5
2018-07-23T09:12:03.725Z,9.9
2018-07-23T09:13:04.464Z,9.4
2018-07-23T09:14:05.248Z,9.7
2018-07-23T09:15:05.991Z,10.6
2018-07-23T09:16:06.740Z,8.9
2018-07-23T09:17:07.520Z,9.3
2018-07-23T09:18:08.267Z,9.7
2018-07-23T09:19:09.307Z,10.8
2018-07-23T09:20:10.049Z,10.4
2018-07-23T09:21:10.784Z,9.6
2018-07-23T09:22:11.570Z,9.9
2018-07-23T09:23:12.267Z,9.8
2018-07-23T09:24:13.359Z,10.2
2018-07-23T09:25:14.098Z,10.8
2018-07-23T09:26:14.841Z,11.7
2018-07-23T09:27:15.584Z,12.3
2018-07-23T09:28:16.323Z,12.4
2018-07-23T09:29:17.085Z,12.3
2018-07-23T09:30:17.867Z,11.9
2018-07-23T09:31:18.561Z,12.6
2018-07-23T09:32:19.361Z,11.5
2018-07-23T09:33:20.104Z,11.6
2018-07-23T09:34:20.863Z,11.1
2018-07-23T09:35:21.604Z,10.9
2018-07-23T09:36:22.338Z,9.9
2018-07-23T09:37:23.435Z,10.6
2018-07-23T09:38:24.168Z,11.1
2018-07-23T09:39:24.904Z,10.0
2018-07-23T09:40:25.641Z,11.0
2018-07-23T09:41:26.380Z,11.1
2018-07-23T09:42:27.170Z,10.5
2018-07-23T09:43:27.896Z,9.9
2018-07-23T09:44:28.630Z,11.5
2018-07-23T09:45:29.377Z,11.7
2018-07-23T09:46:30.139Z,11.9
2018-07-23T09:47:30.884Z,12.0
2018-07-23T09:48:31.630Z,10.7
2018-07-23T09:49:32.634Z,11.7
2018-07-23T09:50:33.363Z,11.6
2018-07-23T09:51:34.096Z,10.9
2018-07-23T09:52:34.897Z,11.3
2018-07-23T09:53:35.674Z,11.5
2018-07-23T09:54:36.398Z,10.9
2018-07-23T09:55:37.138Z,10.1
2018-07-23T09:56:37.869Z,10.7
2018-07-23T09:57:38.617Z,10.3
2018-07-23T09:58:39.351Z,10.8
2018-07-23T09:59:40.092Z,11.5
2018-07-23T10:00:40.840Z,11.8
2018-07-23T10:01:41.577Z,10.5
2018-07-23T10:02:42.579Z,10.8
2018-07-23T10:03:43.323Z,10.8
2018-07-23T10:04:44.055Z,10.4
2018-07-23T10:05:44.790Z,9.4
2018-07-23T10:06:45.588Z,10.1
2018-07-23T10:07:46.322Z,11.0
2018-07-23T10:08:47.308Z,9.3
2018-07-23T10:09:48.306Z,8.6
2018-07-23T10:10:49.073Z,9.1
2018-07-23T10:11:49.857Z,10.6
2018-07-23T10:12:50.594Z,10.0
2018-07-23T10:13:51.341Z,9.7
2018-07-23T10:14:52.081Z,9.1
2018-07-23T10:15:52.826Z,8.5
2018-07-23T10:16:53.566Z,8.0
2018-07-23T10:17:54.302Z,8.2
2018-07-23T10:18:55.049Z,7.7
2018-07-23T10:19:55.782Z,8.7
2018-07-23T10:20:56.567Z,8.6
2018-07-23T10:21:57.314Z,7.1
2018-07-23T10:22:58.054Z,7.7
2018-07-23T10:23:58.783Z,8.2
2018-07-23T10:24:59.530Z,8.2
2018-07-23T10:26:00.265Z,7.9
2018-07-23T10:27:01.062Z,7.2
2018-07-23T10:28:01.812Z,8.1
2018-07-23T10:29:02.556Z,8.3
2018-07-23T10:30:03.288Z,8.0
2018-07-23T10:31:04.304Z,7.2
2018-07-23T10:32:05.042Z,6.6
2018-07-23T10:33:05.780Z,6.9
2018-07-23T10:34:06.527Z,7.2
2018-07-23T10:35:07.301Z,6.7
2018-07-23T10:36:08.014Z,8.0
2018-07-23T10:37:09.121Z,7.8
2018-07-23T10:38:09.853Z,7.7
2018-07-23T10:39:10.592Z,8.4
2018-07-23T10:40:11.337Z,7.5
2018-07-23T10:41:12.102Z,7.2
2018-07-23T10:42:12.804Z,7.6
2018-07-23T10:43:13.544Z,7.7
2018-07-23T10:44:14.346Z,7.7
2018-07-23T10:45:15.075Z,8.0
2018-07-23T10:46:15.812Z,8.0
2018-07-23T10:47:16.570Z,7.6
2018-07-23T10:48:17.303Z,7.5
2018-07-23T10:49:18.046Z,6.7
2018-07-23T10:50:18.785Z,7.9
2018-07-23T10:51:19.519Z,7.2
2018-07-23T10:52:20.506Z,7.4
2018-07-23T10:53:21.245Z,8.4
2018-07-23T10:54:21.990Z,7.5
2018-07-23T10:55:22.779Z,7.0
2018-07-23T10:56:23.520Z,9.5
2018-07-23T10:57:24.259Z,8.2
2018-07-23T10:58:25.007Z,7.7
2018-07-23T10:59:25.741Z,7.7
2018-07-23T11:00:26.526Z,8.3
2018-07-23T11:01:27.274Z,7.5
2018-07-23T11:02:28.018Z,7.2
2018-07-23T11:03:28.753Z,7.1
2018-07-23T11:04:29.739Z,7.1
2018-07-23T11:05:30.469Z,6.5
2018-07-23T11:06:31.260Z,7.0
2018-07-23T11:07:32.000Z,7.4
2018-07-23T11:08:32.730Z,6.5
2018-07-23T11:09:33.474Z,6.6
2018-07-23T11:10:34.201Z,7.2
2018-07-23T11:11:35.547Z,7.1
2018-07-23T11:12:36.323Z,7.4
2018-07-23T11:13:37.027Z,7.1
2018-07-23T11:14:37.762Z,6.3
2018-07-23T11:15:38.512Z,6.2
2018-07-23T11:16:39.245Z,5.9
2018-07-23T11:17:40.043Z,6.9
2018-07-23T11:18:40.792Z,5.3
2018-07-23T11:19:41.540Z,5.7
2018-07-23T11:20:42.269Z,5.3
2018-07-23T11:21:43.257Z,6.3
2018-07-23T11:22:44.356Z,6.8
2018-07-23T11:23:45.094Z,5.6
2018-07-23T11:24:45.928Z,5.2
2018-07-23T11:25:46.618Z,5.1
2018-07-23T11:26:47.400Z,5.5
2018-07-23T11:27:48.134Z,4.9
2018-07-23T11:28:48.880Z,4.6
2018-07-23T11:29:49.615Z,4.9
2018-07-23T11:30:50.361Z,5.2
2018-07-23T11:31:51.100Z,5.4
2018-07-23T11:32:52.197Z,5.2
2018-07-23T11:33:52.943Z,4.9
2018-07-23T11:34:53.680Z,6.0
2018-07-23T11:35:54.433Z,5.1
2018-07-23T11:36:55.160Z,5.0
2018-07-23T11:37:56.254Z,5.5
2018-07-23T11:38:56.995Z,5.8
2018-07-23T11:39:57.730Z,5.1
2018-07-23T11:40:58.469Z,4.9
2018-07-23T11:41:59.208Z,5.1
2018-07-23T11:43:00.209Z,5.3
2018-07-23T11:44:00.963Z,4.7
2018-07-23T11:45:01.705Z,5.0
2018-07-23T11:46:02.460Z,5.0
2018-07-23T11:47:03.471Z,5.2
2018-07-23T11:48:04.810Z,4.7
2018-07-23T11:49:05.547Z,4.9
2018-07-23T11:50:06.295Z,4.7
2018-07-23T11:51:07.371Z,4.2
2018-07-23T11:52:14.357Z,4.9
2018-07-23T11:53:09.145Z,4.2
2018-07-23T11:54:09.878Z,5.4
2018-07-23T11:55:10.618Z,5.0
2018-07-23T11:56:11.384Z,4.5
2018-07-23T11:57:12.126Z,4.5
2018-07-23T11:58:12.948Z,4.9
2018-07-23T11:59:13.713Z,4.4
2018-07-23T12:00:14.456Z,4.0
2018-07-23T12:01:15.212Z,5.0
2018-07-23T12:02:15.961Z,4.4
2018-07-23T12:03:16.822Z,4.8
2018-07-23T12:04:17.632Z,4.6
2018-07-23T12:05:18.372Z,4.4
2018-07-23T12:06:19.404Z,5.0
2018-07-23T12:07:20.538Z,4.6
2018-07-23T12:08:21.274Z,4.6
2018-07-23T12:09:22.014Z,3.8
2018-07-23T12:10:22.754Z,4.3
2018-07-23T12:11:23.517Z,3.9
2018-07-23T12:12:24.269Z,4.0
2018-07-23T12:13:25.015Z,3.7
2018-07-23T12:14:25.774Z,4.1
2018-07-23T12:15:26.519Z,4.1
2018-07-23T12:16:27.255Z,4.1
2018-07-23T12:17:28.078Z,4.2
2018-07-23T12:18:28.743Z,4.2
2018-07-23T12:19:29.754Z,4.1
2018-07-23T12:20:30.507Z,3.9
2018-07-23T12:21:31.257Z,3.9
2018-07-23T12:22:32.007Z,3.7
2018-07-23T12:23:33.063Z,3.4
2018-07-23T12:24:33.788Z,4.1
2018-07-23T12:25:34.558Z,4.1
2018-07-23T12:26:35.297Z,3.7
2018-07-23T12:27:36.047Z,3.9
2018-07-23T12:28:36.787Z,4.1
2018-07-23T12:29:37.802Z,3.2
2018-07-23T12:30:38.539Z,3.8
2018-07-23T12:31:39.286Z,4.0
2018-07-23T12:32:40.027Z,4.1
2018-07-23T12:33:40.825Z,3.4
2018-07-23T12:34:41.567Z,3.4
2018-07-23T12:35:42.308Z,3.5
2018-07-23T12:36:43.314Z,4.2
2018-07-23T12:37:44.060Z,3.8
2018-07-23T12:38:44.801Z,3.6
2018-07-23T12:39:45.593Z,3.8
2018-07-23T12:40:46.297Z,4.1
2018-07-23T12:41:47.287Z,4.0
2018-07-23T12:42:48.783Z,3.9
2018-07-23T12:43:49.593Z,3.9
2018-07-23T12:44:50.328Z,3.5
2018-07-23T12:45:51.069Z,3.4
2018-07-23T12:46:51.808Z,3.9
2018-07-23T12:47:52.610Z,3.5
2018-07-23T12:48:53.353Z,3.5
2018-07-23T12:49:54.120Z,3.4
2018-07-23T12:50:54.849Z,3.5
2018-07-23T12:51:55.839Z,3.5
2018-07-23T12:52:56.929Z,3.5
2018-07-23T12:53:57.666Z,3.3
2018-07-23T12:54:58.413Z,3.0
2018-07-23T12:55:59.582Z,3.9
2018-07-23T12:57:00.685Z,3.2
2018-07-23T12:58:01.823Z,3.5
2018-07-23T12:59:02.563Z,3.5
2018-07-23T13:00:03.582Z,3.4
2018-07-23T13:01:04.297Z,3.7
2018-07-23T13:02:05.093Z,4.7
2018-07-23T13:03:05.849Z,3.4
2018-07-23T13:04:06.588Z,3.4
2018-07-23T13:05:07.332Z,3.6
2018-07-23T13:06:08.090Z,3.3
2018-07-23T13:07:08.836Z,3.4
2018-07-23T13:08:09.636Z,4.4
2018-07-23T13:09:10.327Z,3.7
2018-07-23T13:10:11.072Z,3.9
2018-07-23T13:11:11.816Z,3.4
2018-07-23T13:12:12.580Z,3.8
2018-07-23T13:13:13.330Z,3.5
2018-07-23T13:14:14.072Z,3.7
2018-07-23T13:15:14.814Z,3.6
2018-07-23T13:16:15.613Z,3.2
2018-07-23T13:17:16.352Z,3.1
2018-07-23T13:18:17.098Z,3.3
2018-07-23T13:19:17.931Z,3.6
2018-07-23T13:20:18.587Z,3.5
2018-07-23T13:21:19.380Z,3.2
2018-07-23T13:22:20.151Z,3.3
2018-07-23T13:23:20.907Z,4.0
2018-07-23T13:24:21.648Z,3.6
2018-07-23T13:25:22.390Z,3.4
2018-07-23T13:26:23.123Z,3.5
2018-07-23T13:27:23.866Z,3.5
2018-07-23T13:28:24.855Z,3.9
2018-07-23T13:29:25.597Z,3.6
2018-07-23T13:30:26.373Z,3.4
2018-07-23T13:31:27.121Z,3.5
2018-07-23T13:32:27.914Z,3.8
2018-07-23T13:33:28.603Z,3.2
2018-07-23T13:34:29.672Z,3.6
2018-07-23T13:35:30.412Z,3.3
2018-07-23T13:36:31.161Z,3.3
2018-07-23T13:37:31.944Z,3.4
2018-07-23T13:38:32.707Z,3.6
2018-07-23T13:39:33.457Z,3.4
2018-07-23T13:40:34.202Z,3.8
2018-07-23T13:41:34.973Z,3.8
2018-07-23T13:42:35.705Z,3.8
2018-07-23T13:43:36.465Z,3.4
2018-07-23T13:44:37.217Z,3.3
2018-07-23T13:45:37.970Z,3.7
2018-07-23T13:46:38.719Z,3.6